Time;durP1;ratioP1;P1;durP2;ratioP2;P2;SDS_P1;SDS_P2;PMS_P1;PMS_P2;Temp;Humidity;BMP_temperature;BMP_pressure;BME280_temperature;BME280_humidity;BME280_pressure;Samples;Min_cycle;Max_cycle;Signal;HPM_P1;HPM_P2
2021/05/03 00:00:50;;;;;;;9.00;5.45;;;4.90;99.90;;;;;;5051596;28;20017;-78
2021/05/03 00:03:15;;;;;;;10.70;6.18;;;4.90;99.90;;;;;;5052768;28;20021;-77
2021/05/03 00:05:45;;;;;;;8.02;5.30;;;4.90;99.90;;;;;;5051491;28;20039;-77
2021/05/03 00:08:12;;;;;;;7.78;5.88;;;4.90;99.90;;;;;;5052716;28;20032;-77
2021/05/03 00:10:38;;;;;;;12.77;6.53;;;4.90;99.90;;;;;;5051575;28;20386;-77
2021/05/03 00:13:04;;;;;;;12.82;6.75;;;4.90;99.90;;;;;;5051310;28;20032;-77
2021/05/03 00:15:30;;;;;;;11.02;7.15;;;4.90;99.90;;;;;;5052734;28;20025;-78
2021/05/03 00:17:55;;;;;;;9.63;6.78;;;5.00;99.90;;;;;;5051426;28;20402;-77
2021/05/03 00:20:21;;;;;;;12.57;7.63;;;4.90;99.90;;;;;;5052693;28;20049;-77
2021/05/03 00:22:46;;;;;;;11.55;7.88;;;4.90;99.90;;;;;;5051344;28;20029;-77
2021/05/03 00:25:12;;;;;;;11.52;7.57;;;4.90;99.90;;;;;;5052676;28;20486;-77
2021/05/03 00:27:38;;;;;;;10.48;7.93;;;4.90;99.90;;;;;;5052606;28;20036;-77
2021/05/03 00:30:04;;;;;;;14.68;7.30;;;4.90;99.90;;;;;;5052559;28;20067;-77
2021/05/03 00:32:30;;;;;;;9.07;7.10;;;4.90;99.90;;;;;;5052540;28;20429;-77
2021/05/03 00:34:56;;;;;;;12.80;7.70;;;4.90;99.90;;;;;;5052434;28;20029;-77
2021/05/03 00:37:22;;;;;;;9.15;6.93;;;4.80;99.90;;;;;;5051191;28;20518;-77
2021/05/03 00:39:47;;;;;;;19.02;10.27;;;4.80;99.90;;;;;;5051223;28;20017;-77
2021/05/03 00:42:13;;;;;;;10.20;8.45;;;4.70;99.90;;;;;;5052391;28;20054;-77
2021/05/03 00:44:39;;;;;;;13.32;7.85;;;4.70;99.90;;;;;;5051217;28;20032;-77
2021/05/03 00:47:05;;;;;;;10.32;7.32;;;4.60;99.90;;;;;;5051047;28;20033;-77
2021/05/03 00:49:31;;;;;;;10.80;7.70;;;4.60;99.90;;;;;;5051102;28;20024;-77
2021/05/03 00:51:57;;;;;;;10.50;8.35;;;4.60;99.90;;;;;;5051667;28;20017;-77
2021/05/03 00:54:22;;;;;;;9.98;6.80;;;4.50;99.90;;;;;;5072263;28;20052;-77
2021/05/03 00:56:48;;;;;;;13.05;8.80;;;4.40;99.90;;;;;;5073785;28;20024;-77
2021/05/03 00:59:14;;;;;;;11.80;7.80;;;4.50;99.90;;;;;;5076448;28;20032;-77
2021/05/03 01:01:40;;;;;;;13.18;8.73;;;4.50;99.90;;;;;;5076039;28;20024;-78
2021/05/03 01:04:06;;;;;;;13.52;9.18;;;4.40;99.90;;;;;;5074711;28;20087;-78
2021/05/03 01:06:32;;;;;;;10.88;8.48;;;4.50;99.90;;;;;;5076278;28;20039;-78
2021/05/03 01:08:58;;;;;;;13.20;8.85;;;4.40;99.90;;;;;;5074489;28;20052;-77
2021/05/03 01:11:24;;;;;;;14.95;8.95;;;4.40;99.90;;;;;;5074534;28;20032;-77
2021/05/03 01:13:50;;;;;;;11.35;7.65;;;4.40;99.90;;;;;;5075730;28;20036;-77
2021/05/03 01:16:16;;;;;;;13.85;9.02;;;4.50;99.90;;;;;;5075742;28;20028;-77
2021/05/03 01:18:42;;;;;;;13.00;8.55;;;4.40;99.90;;;;;;5074411;28;20028;-77
2021/05/03 01:21:07;;;;;;;10.27;8.05;;;4.40;99.90;;;;;;5074532;28;20047;-77
2021/05/03 01:23:34;;;;;;;13.10;7.97;;;4.40;99.90;;;;;;5075639;28;20412;-77
2021/05/03 01:25:59;;;;;;;12.30;8.00;;;4.50;99.90;;;;;;5075646;28;20033;-77
2021/05/03 01:28:25;;;;;;;12.77;7.82;;;4.50;99.90;;;;;;5074271;28;20115;-77
2021/05/03 01:30:51;;;;;;;11.35;8.27;;;4.50;99.90;;;;;;5075556;28;20017;-77
2021/05/03 01:33:18;;;;;;;10.65;8.20;;;4.50;99.90;;;;;;5075301;28;20051;-77
2021/05/03 01:35:46;;;;;;;12.75;8.45;;;4.50;99.90;;;;;;5075461;28;20108;-77
2021/05/03 01:38:13;;;;;;;11.55;7.80;;;4.50;99.90;;;;;;5074045;28;20536;-77
2021/05/03 01:40:41;;;;;;;12.85;7.60;;;4.50;99.90;;;;;;5075355;28;20045;-77
2021/05/03 01:43:25;;;;;;;12.35;7.43;;;4.50;99.90;;;;;;5075288;28;20117;-77
2021/05/03 01:45:54;;;;;;;11.82;7.82;;;4.60;99.90;;;;;;5075207;28;20028;-77
2021/05/03 01:48:31;;;;;;;12.85;8.63;;;4.60;99.90;;;;;;5075120;28;20492;-77
2021/05/03 01:50:59;;;;;;;12.95;8.80;;;4.60;99.90;;;;;;5075231;28;20377;-77
2021/05/03 01:53:25;;;;;;;10.68;8.05;;;4.60;99.90;;;;;;5074982;28;20068;-77
2021/05/03 01:55:54;;;;;;;12.40;8.80;;;4.60;99.90;;;;;;5075114;28;20110;-77
2021/05/03 01:58:22;;;;;;;8.60;6.80;;;4.60;99.90;;;;;;5075121;28;20036;-77
2021/05/03 02:00:47;;;;;;;10.70;7.95;;;4.60;99.90;;;;;;5074979;28;20070;-77
2021/05/03 02:03:20;;;;;;;13.98;8.73;;;4.60;99.90;;;;;;5074872;28;20025;-77
2021/05/03 02:05:46;;;;;;;18.48;10.75;;;4.70;99.90;;;;;;5074906;28;20541;-77
2021/05/03 02:08:11;;;;;;;15.65;9.63;;;4.60;99.90;;;;;;5074114;28;20028;-77
2021/05/03 02:10:37;;;;;;;10.00;7.10;;;4.70;99.90;;;;;;5074857;28;20044;-77
2021/05/03 02:13:04;;;;;;;16.73;10.85;;;4.60;99.90;;;;;;5074590;28;20048;-77
2021/05/03 02:15:31;;;;;;;16.67;11.13;;;4.60;99.90;;;;;;5074690;28;20367;-77
2021/05/03 02:17:57;;;;;;;20.13;11.82;;;4.70;99.90;;;;;;5074604;28;20032;-77
2021/05/03 02:20:22;;;;;;;12.68;8.70;;;4.70;99.90;;;;;;5074602;28;20021;-77
2021/05/03 02:22:48;;;;;;;21.65;10.40;;;4.70;99.90;;;;;;5074543;28;20031;-78
2021/05/03 02:25:15;;;;;;;19.52;11.13;;;4.70;99.90;;;;;;5074495;28;20029;-78
2021/05/03 02:27:41;;;;;;;9.95;7.40;;;4.70;99.90;;;;;;5073157;28;20555;-78
2021/05/03 02:30:09;;;;;;;9.98;6.25;;;4.70;99.90;;;;;;5073131;28;20402;-78
2021/05/03 02:32:37;;;;;;;10.18;6.97;;;4.70;99.90;;;;;;5074314;28;20028;-78
2021/05/03 02:35:11;;;;;;;9.07;6.88;;;4.70;99.90;;;;;;5074217;28;20041;-78
2021/05/03 02:37:37;;;;;;;7.80;6.15;;;4.70;99.90;;;;;;5072884;28;20021;-78
2021/05/03 02:40:04;;;;;;;9.75;6.88;;;4.70;99.90;;;;;;5072935;28;20021;-77
2021/05/03 02:42:30;;;;;;;7.70;6.80;;;4.70;99.90;;;;;;5073589;28;20031;-77
2021/05/03 02:44:55;;;;;;;9.25;6.97;;;4.70;99.90;;;;;;5072526;28;20100;-77
2021/05/03 02:47:21;;;;;;;10.00;8.70;;;4.70;99.90;;;;;;5073629;28;20021;-77
2021/05/03 02:49:47;;;;;;;10.75;6.43;;;4.70;99.90;;;;;;5072295;28;20020;-78
2021/05/03 02:52:12;;;;;;;11.32;7.60;;;4.60;99.90;;;;;;5072224;28;20486;-78
2021/05/03 02:54:38;;;;;;;11.77;6.50;;;4.70;99.90;;;;;;5072173;28;20090;-78
2021/05/03 02:57:04;;;;;;;10.18;6.82;;;4.70;99.90;;;;;;5073497;28;20032;-78
2021/05/03 02:59:30;;;;;;;9.55;6.88;;;4.70;99.90;;;;;;5074038;28;20515;-78
2021/05/03 03:01:55;;;;;;;10.27;7.07;;;4.70;99.90;;;;;;5073490;28;20050;-77
2021/05/03 03:04:21;;;;;;;8.57;6.47;;;4.70;99.90;;;;;;5073349;28;20039;-78
2021/05/03 03:06:47;;;;;;;10.43;7.35;;;4.60;99.90;;;;;;5073246;28;20139;-78
2021/05/03 03:09:13;;;;;;;10.93;8.20;;;4.70;99.90;;;;;;5071887;28;20032;-77
2021/05/03 03:11:41;;;;;;;11.35;7.97;;;4.70;99.90;;;;;;5071900;28;20028;-77
2021/05/03 03:14:07;;;;;;;11.43;6.93;;;4.70;99.90;;;;;;5073088;28;20036;-78
2021/05/03 03:16:34;;;;;;;13.93;8.30;;;4.60;99.90;;;;;;5071908;28;20024;-78
2021/05/03 03:19:00;;;;;;;17.73;10.13;;;4.60;99.90;;;;;;5072086;28;20028;-78
2021/05/03 03:21:26;;;;;;;26.75;13.35;;;4.60;99.90;;;;;;5056877;28;20029;-78
2021/05/03 03:23:52;;;;;;;30.85;14.98;;;4.60;99.90;;;;;;5053146;28;20028;-77
2021/05/03 03:26:18;;;;;;;27.52;13.10;;;4.50;99.90;;;;;;5053022;28;20475;-77
2021/05/03 03:28:44;;;;;;;27.00;12.95;;;4.50;99.90;;;;;;5051586;28;20025;-77
2021/05/03 03:31:10;;;;;;;305.63;101.93;;;4.50;99.90;;;;;;5052957;28;20017;-77
2021/05/03 03:33:36;;;;;;;158.80;58.22;;;4.50;99.90;;;;;;5052925;28;20086;-77
2021/05/03 03:36:03;;;;;;;118.80;44.33;;;4.50;99.90;;;;;;5052788;28;20048;-77
2021/05/03 03:38:29;;;;;;;105.88;40.53;;;4.50;99.90;;;;;;5051610;28;20554;-77
2021/05/03 03:40:55;;;;;;;267.83;87.05;;;4.50;99.90;;;;;;5052752;28;20092;-77
2021/05/03 03:43:20;;;;;;;241.93;83.78;;;4.50;99.90;;;;;;5052677;28;20025;-77
2021/05/03 03:45:46;;;;;;;106.97;39.10;;;4.50;99.90;;;;;;5052731;28;20090;-77
2021/05/03 03:48:12;;;;;;;100.85;39.33;;;4.50;99.90;;;;;;5052654;28;20025;-77
2021/05/03 03:50:37;;;;;;;262.55;80.78;;;4.60;99.90;;;;;;5052708;28;20067;-77
2021/05/03 03:53:04;;;;;;;165.73;61.60;;;4.50;99.90;;;;;;5052373;28;20025;-77
2021/05/03 03:55:29;;;;;;;69.05;30.15;;;4.50;99.90;;;;;;5051479;28;20058;-77
2021/05/03 03:57:55;;;;;;;217.65;73.93;;;4.50;99.90;;;;;;5050990;28;20572;-77
2021/05/03 04:00:22;;;;;;;66.63;25.17;;;4.50;99.90;;;;;;5053072;28;20029;-77
2021/05/03 04:02:49;;;;;;;62.22;23.25;;;4.50;99.90;;;;;;5052286;28;20028;-77
2021/05/03 04:08:13;;;;;;;58.65;30.17;;;4.50;99.90;;;;;;5052700;28;20040;-77
2021/05/03 04:14:01;;;;;;;32.83;16.77;;;4.50;99.90;;;;;;5052576;28;20352;-77
2021/05/03 04:22:16;;;;;;;47.85;22.35;;;4.60;99.90;;;;;;5052291;28;20086;-77
2021/05/03 04:24:26;;;;;;;23.35;13.27;;;4.60;99.90;;;;;;5050190;28;20025;-77
2021/05/03 04:26:51;;;;;;;29.42;16.50;;;4.60;99.90;;;;;;5052211;28;20543;-77
2021/05/03 04:29:17;;;;;;;35.13;19.20;;;4.70;99.90;;;;;;5052317;28;20025;-77
2021/05/03 04:31:43;;;;;;;25.23;13.80;;;4.70;99.90;;;;;;5055128;28;20360;-77
2021/05/03 04:34:08;;;;;;;25.42;13.00;;;4.70;99.90;;;;;;5056166;28;20033;-77
2021/05/03 04:36:34;;;;;;;18.83;11.05;;;4.70;99.90;;;;;;5056134;28;20039;-77
2021/05/03 04:39:00;;;;;;;23.48;13.18;;;4.70;99.90;;;;;;5074804;28;20035;-77
2021/05/03 04:41:25;;;;;;;18.10;10.73;;;4.70;99.90;;;;;;5076223;28;20074;-77
2021/05/03 04:43:51;;;;;;;16.58;10.18;;;4.70;99.90;;;;;;5076002;28;20103;-77
2021/05/03 04:46:17;;;;;;;19.23;11.40;;;4.70;99.90;;;;;;5076103;28;20024;-77
2021/05/03 04:48:43;;;;;;;17.63;10.63;;;4.70;99.90;;;;;;5074414;28;20031;-77
2021/05/03 04:51:09;;;;;;;17.27;11.73;;;4.80;99.90;;;;;;5074649;28;20102;-77
2021/05/03 04:53:35;;;;;;;14.60;9.27;;;4.70;99.90;;;;;;5074475;28;20596;-77
2021/05/03 04:56:02;;;;;;;14.75;9.85;;;4.80;99.90;;;;;;5074723;28;20397;-77
2021/05/03 04:58:28;;;;;;;17.77;10.13;;;4.80;99.90;;;;;;5075998;28;20037;-77
2021/05/03 05:00:53;;;;;;;14.15;10.75;;;4.80;99.90;;;;;;5075745;28;20024;-77
2021/05/03 05:03:19;;;;;;;13.77;8.98;;;4.80;99.90;;;;;;5075615;28;20029;-77
2021/05/03 05:05:47;;;;;;;12.35;7.85;;;4.80;99.90;;;;;;5074296;28;20093;-77
2021/05/03 05:08:13;;;;;;;13.05;8.10;;;4.80;99.90;;;;;;5075454;28;20531;-77
2021/05/03 05:10:39;;;;;;;10.82;8.20;;;4.90;99.90;;;;;;5075510;28;20025;-77
2021/05/03 05:13:04;;;;;;;17.85;10.75;;;4.90;99.90;;;;;;5075377;28;20485;-77
2021/05/03 05:15:30;;;;;;;12.52;7.97;;;4.90;99.90;;;;;;5074195;28;20390;-77
2021/05/03 05:17:56;;;;;;;12.73;7.60;;;5.00;99.90;;;;;;5075365;28;20029;-77
2021/05/03 05:20:22;;;;;;;12.93;7.65;;;5.00;99.90;;;;;;5075313;28;20025;-77
2021/05/03 05:22:48;;;;;;;10.95;8.40;;;5.10;99.90;;;;;;5075425;28;20027;-77
2021/05/03 05:25:14;;;;;;;12.32;8.15;;;5.00;99.90;;;;;;5073945;28;20024;-77
2021/05/03 05:27:39;;;;;;;10.93;7.15;;;5.10;99.90;;;;;;5075322;28;20035;-77
2021/05/03 05:30:06;;;;;;;8.90;6.97;;;5.10;99.90;;;;;;5073899;28;20565;-77
2021/05/03 05:32:32;;;;;;;10.15;7.45;;;5.10;99.90;;;;;;5075056;28;20047;-78
2021/05/03 05:34:57;;;;;;;11.88;7.60;;;5.10;99.90;;;;;;5075050;28;20486;-77
2021/05/03 05:37:23;;;;;;;10.13;6.72;;;5.10;99.90;;;;;;5071098;28;20371;-77
2021/05/03 05:39:49;;;;;;;10.27;6.72;;;5.10;99.90;;;;;;5073570;28;20482;-77
2021/05/03 05:42:15;;;;;;;10.23;6.93;;;5.10;99.90;;;;;;5073309;28;20017;-77
2021/05/03 05:44:40;;;;;;;12.13;8.73;;;5.10;99.90;;;;;;5072767;28;20032;-77
2021/05/03 05:47:06;;;;;;;8.98;6.97;;;5.10;99.90;;;;;;5073445;28;20488;-77
2021/05/03 05:49:32;;;;;;;8.38;6.45;;;5.10;99.90;;;;;;5073140;28;20040;-77
2021/05/03 05:51:57;;;;;;;10.75;7.32;;;5.10;99.90;;;;;;5060777;28;20112;-77
2021/05/03 05:54:24;;;;;;;12.98;7.90;;;5.10;99.90;;;;;;5054083;28;20041;-77
2021/05/03 05:56:50;;;;;;;10.77;7.80;;;5.10;99.90;;;;;;5054542;28;20018;-77
2021/05/03 05:59:17;;;;;;;10.77;7.30;;;5.10;99.90;;;;;;5054390;28;20044;-77
2021/05/03 06:01:44;;;;;;;12.93;7.68;;;5.10;99.90;;;;;;5054146;28;20036;-77
2021/05/03 06:04:10;;;;;;;11.55;8.07;;;5.10;99.90;;;;;;5053785;28;20490;-77
2021/05/03 06:06:35;;;;;;;12.52;9.10;;;5.10;99.90;;;;;;5053581;28;20052;-77
2021/05/03 06:09:01;;;;;;;10.30;8.23;;;5.10;99.90;;;;;;5053010;28;20025;-76
2021/05/03 06:11:28;;;;;;;8.70;6.40;;;5.10;99.90;;;;;;5054216;28;20053;-76
2021/05/03 06:13:53;;;;;;;9.95;7.22;;;5.10;99.90;;;;;;5053639;28;20033;-76
2021/05/03 06:16:19;;;;;;;12.10;6.93;;;5.20;99.90;;;;;;5060802;28;20089;-77
2021/05/03 06:18:44;;;;;;;6.32;5.53;;;5.20;99.90;;;;;;5072938;28;20028;-77
2021/05/03 06:21:10;;;;;;;6.80;4.70;;;5.20;99.90;;;;;;5073399;28;20024;-77
2021/05/03 06:23:36;;;;;;;7.28;4.88;;;5.20;99.90;;;;;;5074133;28;20131;-77
2021/05/03 06:26:02;;;;;;;6.85;4.75;;;5.30;99.90;;;;;;5074141;28;20016;-78
2021/05/03 06:28:27;;;;;;;7.85;5.05;;;5.30;99.90;;;;;;5058525;28;20028;-78
2021/05/03 06:30:56;;;;;;;6.90;5.28;;;5.40;99.90;;;;;;5057910;28;20047;-77
2021/05/03 06:33:22;;;;;;;5.35;4.45;;;5.40;99.90;;;;;;5061412;28;20422;-77
2021/05/03 06:35:48;;;;;;;7.22;5.78;;;5.40;99.80;;;;;;5070028;28;20058;-77
2021/05/03 06:38:13;;;;;;;8.63;5.00;;;5.50;99.90;;;;;;5072553;28;20482;-78
2021/05/03 06:40:39;;;;;;;5.50;4.50;;;5.60;99.90;;;;;;5072362;28;20576;-78
2021/05/03 06:43:05;;;;;;;10.93;4.85;;;5.60;99.90;;;;;;5071792;28;20017;-78
2021/05/03 06:45:33;;;;;;;8.55;4.55;;;5.70;99.90;;;;;;5067302;28;20036;-78
2021/05/03 06:47:59;;;;;;;6.97;4.78;;;5.80;98.50;;;;;;5062407;28;20104;-78
2021/05/03 06:50:25;;;;;;;4.25;3.83;;;5.90;98.30;;;;;;5062191;28;20058;-78
2021/05/03 06:52:51;;;;;;;5.35;4.18;;;5.80;93.80;;;;;;5063925;28;20355;-77
2021/05/03 06:55:17;;;;;;;12.07;7.20;;;5.80;93.70;;;;;;5061631;28;20033;-78
2021/05/03 06:57:43;;;;;;;5.93;4.05;;;5.90;93.90;;;;;;5055005;28;20070;-77
2021/05/03 07:00:11;;;;;;;3.80;3.50;;;5.90;92.70;;;;;;5053157;28;20104;-78
2021/05/03 07:02:37;;;;;;;7.28;4.13;;;5.90;89.40;;;;;;5053320;28;20017;-78
2021/05/03 07:05:03;;;;;;;6.15;4.68;;;5.90;93.80;;;;;;5051833;28;20497;-78
2021/05/03 07:07:29;;;;;;;5.43;3.80;;;6.00;93.00;;;;;;5054962;28;20025;-78
2021/05/03 07:09:55;;;;;;;5.10;4.20;;;6.00;93.30;;;;;;5060420;28;20032;-77
2021/05/03 07:12:22;;;;;;;7.20;4.80;;;6.10;91.90;;;;;;5058631;28;20017;-78
2021/05/03 07:14:49;;;;;;;5.18;4.25;;;6.10;91.80;;;;;;5063436;28;20037;-78
2021/05/03 07:17:15;;;;;;;5.05;3.33;;;6.10;91.60;;;;;;5060335;28;20021;-77
2021/05/03 07:19:42;;;;;;;6.30;4.38;;;6.00;89.60;;;;;;5063300;28;20385;-78
2021/05/03 07:22:09;;;;;;;5.88;3.88;;;5.90;89.30;;;;;;5065388;28;20017;-78
2021/05/03 07:24:39;;;;;;;5.38;4.57;;;5.80;90.90;;;;;;5068048;28;20016;-78
2021/05/03 07:27:07;;;;;;;6.88;4.25;;;5.90;91.50;;;;;;5064397;28;20009;-78
2021/05/03 07:29:33;;;;;;;8.07;4.85;;;5.80;92.60;;;;;;5062201;28;20033;-78
2021/05/03 07:31:58;;;;;;;5.05;4.13;;;5.80;91.70;;;;;;5064747;28;20028;-78
2021/05/03 07:34:24;;;;;;;6.38;4.00;;;5.80;90.40;;;;;;5063804;28;20033;-77
2021/05/03 07:36:50;;;;;;;6.40;4.00;;;5.90;92.20;;;;;;5063103;28;20028;-78
2021/05/03 07:39:15;;;;;;;5.90;4.30;;;5.90;93.80;;;;;;5063425;28;20067;-77
2021/05/03 07:41:41;;;;;;;5.10;4.40;;;5.90;94.20;;;;;;5066707;28;20021;-78
2021/05/03 07:44:08;;;;;;;6.72;4.63;;;5.90;93.00;;;;;;5066120;28;20020;-78
2021/05/03 07:46:34;;;;;;;5.68;4.30;;;5.90;92.20;;;;;;5071889;28;20020;-78
2021/05/03 07:49:01;;;;;;;4.40;3.95;;;5.90;90.60;;;;;;5063290;28;20511;-78
2021/05/03 07:51:27;;;;;;;8.35;5.50;;;5.80;92.10;;;;;;5064784;28;20104;-78
2021/05/03 07:53:54;;;;;;;6.20;4.90;;;5.80;91.70;;;;;;5067657;28;20518;-78
2021/05/03 07:56:21;;;;;;;8.07;5.88;;;5.70;91.60;;;;;;5068515;28;20266;-77
2021/05/03 07:58:48;;;;;;;7.18;6.45;;;5.70;91.50;;;;;;5068930;28;20063;-78
2021/05/03 08:01:16;;;;;;;20.55;16.63;;;5.70;93.20;;;;;;5071385;28;20028;-78
2021/05/03 08:03:43;;;;;;;12.55;9.60;;;5.60;94.50;;;;;;5071048;28;20113;-77
2021/05/03 08:06:14;;;;;;;31.25;12.20;;;5.60;94.50;;;;;;5068805;28;20056;-77
2021/05/03 08:08:41;;;;;;;7.35;5.43;;;5.60;94.40;;;;;;5072157;28;20048;-77
2021/05/03 08:11:07;;;;;;;28.50;16.95;;;5.60;92.50;;;;;;5071894;28;20025;-77
2021/05/03 08:13:32;;;;;;;12.88;10.38;;;5.60;94.50;;;;;;5061270;28;20366;-77
2021/05/03 08:16:01;;;;;;;13.25;7.55;;;5.60;96.80;;;;;;5057222;28;20013;-77
2021/05/03 08:18:28;;;;;;;17.85;8.52;;;5.50;95.60;;;;;;5058819;28;20314;-78
2021/05/03 08:20:54;;;;;;;18.02;7.13;;;5.50;97.20;;;;;;5062528;28;20089;-79
2021/05/03 08:23:21;;;;;;;12.25;6.97;;;5.50;96.30;;;;;;5055953;28;20029;-79
2021/05/03 08:25:48;;;;;;;6.15;4.53;;;5.50;96.00;;;;;;5060993;28;20032;-79
2021/05/03 08:28:15;;;;;;;6.75;4.88;;;5.40;94.70;;;;;;5057242;28;20107;-79
2021/05/03 08:30:41;;;;;;;9.32;5.35;;;5.40;91.60;;;;;;5050628;28;20391;-78
2021/05/03 08:33:06;;;;;;;5.65;3.83;;;5.50;92.20;;;;;;5050635;28;20021;-78
2021/05/03 08:35:32;;;;;;;4.15;3.65;;;5.50;87.80;;;;;;5049061;28;20037;-79
2021/05/03 08:37:58;;;;;;;5.60;4.50;;;5.50;84.50;;;;;;5051472;28;20032;-79
2021/05/03 08:40:24;;;;;;;3.97;3.50;;;5.60;86.30;;;;;;5050845;28;20029;-79
2021/05/03 08:42:50;;;;;;;4.28;3.88;;;5.70;86.80;;;;;;5051935;28;20021;-79
2021/05/03 08:45:16;;;;;;;5.45;4.28;;;5.80;88.60;;;;;;5052262;28;20024;-79
2021/05/03 08:47:53;;;;;;;3.70;3.40;;;5.80;89.20;;;;;;5052143;28;20108;-79
2021/05/03 08:50:27;;;;;;;3.88;3.47;;;5.90;88.70;;;;;;5048905;28;20021;-79
2021/05/03 08:52:56;;;;;;;6.20;4.15;;;5.90;87.00;;;;;;5048228;28;20490;-79
2021/05/03 08:55:22;;;;;;;6.82;4.45;;;5.80;85.00;;;;;;5069379;28;20032;-79
2021/05/03 08:57:48;;;;;;;3.85;3.53;;;5.80;83.70;;;;;;5070432;28;20038;-79
2021/05/03 09:00:15;;;;;;;3.63;3.05;;;5.80;84.50;;;;;;5056998;28;20475;-79
2021/05/03 09:02:45;;;;;;;3.70;3.40;;;5.70;81.70;;;;;;5051929;28;20028;-79
2021/05/03 09:05:11;;;;;;;5.97;4.45;;;5.70;81.10;;;;;;5050244;28;20071;-78
2021/05/03 09:07:49;;;;;;;4.95;4.13;;;5.70;82.90;;;;;;5051921;28;20028;-79
2021/05/03 09:10:18;;;;;;;7.18;4.75;;;5.70;81.20;;;;;;5050680;28;20450;-80
2021/05/03 09:12:44;;;;;;;8.52;5.15;;;5.80;80.40;;;;;;5050286;28;20424;-79
2021/05/03 09:15:10;;;;;;;18.27;9.07;;;5.80;79.70;;;;;;5051498;28;20498;-79
2021/05/03 09:17:41;;;;;;;5.85;5.22;;;5.80;78.80;;;;;;5056955;28;20071;-78
2021/05/03 09:20:13;;;;;;;96.43;32.90;;;5.90;81.40;;;;;;5064453;28;20017;-79
2021/05/03 09:23:02;;;;;;;129.40;51.72;;;6.00;81.60;;;;;;5065646;28;20019;-79
2021/05/03 09:28:31;;;;;;;437.67;172.30;;;6.10;80.80;;;;;;5074956;28;20025;-79
2021/05/03 09:30:56;;;;;;;345.35;137.07;;;6.20;81.50;;;;;;5059193;28;20033;-79
2021/05/03 09:33:30;;;;;;;266.48;104.70;;;6.20;80.00;;;;;;5074412;28;20059;-79
2021/05/03 09:36:04;;;;;;;304.75;126.80;;;6.20;82.00;;;;;;5074431;28;20024;-78
2021/05/03 09:38:45;;;;;;;485.98;219.15;;;6.30;82.30;;;;;;5072801;28;20111;-79
2021/05/03 09:41:25;;;;;;;78.30;37.08;;;6.40;81.00;;;;;;5072126;28;20020;-79
2021/05/03 09:43:52;;;;;;;224.48;87.95;;;6.60;80.30;;;;;;5069901;28;20437;-79
2021/05/03 09:46:47;;;;;;;322.55;122.85;;;6.60;73.70;;;;;;5072754;28;20024;-79
2021/05/03 09:49:19;;;;;;;49.30;21.08;;;6.70;76.40;;;;;;5052792;28;20434;-79
2021/05/03 09:51:59;;;;;;;165.60;61.07;;;6.80;71.80;;;;;;5053314;28;20023;-79
2021/05/03 09:54:26;;;;;;;17.63;9.63;;;6.70;71.80;;;;;;5054874;28;20043;-79
2021/05/03 09:57:04;;;;;;;17.98;8.05;;;6.80;72.90;;;;;;5052573;28;20025;-79
2021/05/03 09:59:49;;;;;;;13.50;6.82;;;6.80;72.10;;;;;;5053213;28;20498;-79
2021/05/03 10:02:18;;;;;;;8.88;4.85;;;7.00;71.30;;;;;;5059365;28;20028;-79
2021/05/03 10:04:51;;;;;;;62.65;19.08;;;7.00;70.50;;;;;;5064369;28;20046;-79
2021/05/03 10:07:19;;;;;;;47.42;14.98;;;7.20;71.10;;;;;;5061766;28;20056;-79
2021/05/03 10:09:48;;;;;;;19.23;7.47;;;7.30;70.40;;;;;;5058026;28;20033;-79
2021/05/03 10:12:18;;;;;;;22.50;8.23;;;7.30;70.20;;;;;;5059881;28;20395;-79
2021/05/03 10:14:48;;;;;;;34.08;12.70;;;7.50;70.70;;;;;;5063948;28;20409;-79
2021/05/03 10:17:16;;;;;;;15.27;5.57;;;7.60;70.00;;;;;;5063542;28;20082;-79
2021/05/03 10:19:44;;;;;;;41.10;13.52;;;7.60;66.40;;;;;;5063582;28;20036;-79
2021/05/03 10:22:16;;;;;;;60.80;18.95;;;7.70;66.70;;;;;;5062966;28;20020;-79
2021/05/03 10:24:45;;;;;;;79.65;23.38;;;8.00;65.50;;;;;;5061009;28;20019;-79
2021/05/03 10:27:11;;;;;;;37.83;14.00;;;8.40;66.80;;;;;;5057101;28;20021;-79
2021/05/03 10:29:43;;;;;;;47.83;19.83;;;8.50;66.40;;;;;;5056466;28;20059;-79
2021/05/03 10:32:12;;;;;;;117.63;56.63;;;8.30;59.70;;;;;;5068884;28;20456;-79
2021/05/03 10:34:43;;;;;;;23.50;15.20;;;8.40;61.80;;;;;;5058328;28;20413;-79
2021/05/03 10:37:42;;;;;;;76.50;22.85;;;8.70;65.20;;;;;;5061454;28;20028;-79
2021/05/03 10:40:33;;;;;;;32.97;12.68;;;8.40;60.50;;;;;;5058250;28;20021;-79
2021/05/03 10:43:02;;;;;;;29.33;10.75;;;8.30;60.10;;;;;;5083656;28;20036;-79
2021/05/03 10:54:33;;;;;;;22.77;8.60;;;9.10;60.40;;;;;;5019258;28;20059;-79
2021/05/03 10:57:02;;;;;;;3.60;2.72;;;9.00;57.90;;;;;;5061620;28;20375;-79
2021/05/03 10:59:46;;;;;;;3.72;3.38;;;9.00;58.30;;;;;;5062501;28;20139;-80
2021/05/03 11:02:14;;;;;;;5.78;3.67;;;8.70;57.00;;;;;;5058734;28;20021;-79
2021/05/03 11:05:08;;;;;;;3.55;3.13;;;8.80;58.70;;;;;;5053842;28;20025;-79
2021/05/03 11:07:34;;;;;;;9.75;7.05;;;8.70;57.10;;;;;;5067101;28;20024;-79
2021/05/03 11:10:00;;;;;;;24.75;8.40;;;9.00;57.70;;;;;;5072386;28;20024;-80
2021/05/03 11:12:28;;;;;;;45.40;13.98;;;9.40;56.80;;;;;;5067543;28;20024;-79
2021/05/03 11:15:15;;;;;;;11.93;4.32;;;9.30;54.70;;;;;;5072921;28;20064;-78
2021/05/03 11:18:19;;;;;;;29.00;10.65;;;9.00;54.40;;;;;;5071958;28;20031;-78
2021/05/03 11:21:17;;;;;;;35.70;14.50;;;8.80;55.70;;;;;;5071164;28;20040;-78
2021/05/03 11:23:43;;;;;;;38.13;18.83;;;9.00;56.90;;;;;;5062961;28;20057;-78
2021/05/03 11:26:34;;;;;;;25.38;14.38;;;9.00;57.00;;;;;;5063413;28;20060;-79
2021/05/03 11:29:11;;;;;;;17.48;9.80;;;9.20;57.30;;;;;;5068103;28;20127;-79
2021/05/03 11:31:38;;;;;;;14.38;7.20;;;9.40;55.70;;;;;;5071570;28;20016;-80
2021/05/03 11:34:31;;;;;;;14.18;6.47;;;9.30;54.70;;;;;;5072344;28;20449;-79
2021/05/03 11:36:57;;;;;;;11.13;5.60;;;9.50;54.90;;;;;;5069738;28;20029;-79
2021/05/03 11:44:51;;;;;;;33.05;15.15;;;9.80;54.40;;;;;;5064064;28;20025;-79
2021/05/03 11:47:32;;;;;;;45.08;19.70;;;9.90;52.60;;;;;;5065560;28;20110;-80
2021/05/03 11:49:58;;;;;;;9.82;7.07;;;9.60;51.90;;;;;;5061682;28;20024;-78
2021/05/03 11:52:32;;;;;;;41.67;17.67;;;9.60;50.70;;;;;;5062662;28;20017;-79
2021/05/03 11:55:05;;;;;;;4.18;2.85;;;9.70;51.10;;;;;;5058462;28;20502;-78
2021/05/03 11:57:32;;;;;;;3.55;2.95;;;9.60;50.00;;;;;;5060877;28;20360;-79
2021/05/03 12:00:02;;;;;;;8.43;5.32;;;9.40;49.30;;;;;;5059872;28;20517;-79
2021/05/03 12:02:28;;;;;;;25.50;12.63;;;9.50;49.20;;;;;;5064439;28;20036;-78
2021/05/03 12:04:54;;;;;;;14.15;8.35;;;9.40;48.90;;;;;;5062784;28;20028;-78
2021/05/03 12:07:25;;;;;;;12.07;7.18;;;9.40;50.10;;;;;;5064413;28;20028;-79
2021/05/03 12:10:05;;;;;;;2.20;2.00;;;9.60;51.50;;;;;;5062894;28;20029;-79
2021/05/03 12:12:36;;;;;;;11.75;5.05;;;9.30;49.20;;;;;;5064963;28;20028;-79
2021/05/03 12:15:04;;;;;;;29.35;15.15;;;9.30;49.90;;;;;;5062363;28;20040;-79
2021/05/03 12:17:31;;;;;;;11.88;5.30;;;9.20;50.90;;;;;;5062243;28;20013;-79
2021/05/03 12:20:02;;;;;;;11.55;5.78;;;9.10;50.10;;;;;;5059811;28;20435;-79
2021/05/03 12:22:28;;;;;;;19.98;9.20;;;9.20;49.90;;;;;;5057713;28;20295;-78
2021/05/03 12:25:05;;;;;;;21.17;11.32;;;9.10;51.10;;;;;;5052164;28;20021;-79
2021/05/03 12:27:32;;;;;;;7.70;3.55;;;9.20;51.30;;;;;;5053453;28;20033;-78
2021/05/03 12:29:58;;;;;;;5.13;3.40;;;9.20;52.90;;;;;;5061323;28;20528;-78
2021/05/03 12:32:29;;;;;;;9.55;4.57;;;9.50;55.40;;;;;;5058674;28;20032;-78
2021/05/03 12:34:55;;;;;;;9.10;4.88;;;9.50;55.10;;;;;;5056473;28;21315;-79
2021/05/03 12:37:23;;;;;;;5.10;3.10;;;9.50;56.30;;;;;;5060460;28;20475;-73
2021/05/03 12:40:03;;;;;;;2.70;2.10;;;9.60;56.90;;;;;;5059783;28;20025;-73
2021/05/03 12:42:48;;;;;;;11.05;6.63;;;9.40;54.80;;;;;;5058144;28;20033;-73
2021/05/03 12:48:23;;;;;;;7.82;4.13;;;9.50;52.80;;;;;;5053907;28;20049;-73
2021/05/03 12:51:07;;;;;;;9.18;4.88;;;9.40;52.40;;;;;;5061399;28;20018;-74
2021/05/03 12:53:49;;;;;;;10.00;5.53;;;9.80;53.20;;;;;;5065649;28;20496;-74
2021/05/03 12:59:32;;;;;;;10.00;4.38;;;10.20;53.20;;;;;;5061344;28;20036;-74
2021/05/03 13:02:31;;;;;;;19.13;7.32;;;10.10;50.60;;;;;;5062627;28;20028;-74
2021/05/03 13:05:12;;;;;;;16.20;7.40;;;10.20;50.00;;;;;;5059165;28;20024;-74
2021/05/03 13:29:37;;;;;;;4.43;3.25;;;9.60;52.70;;;;;;5065541;28;20108;-73
2021/05/03 13:32:02;;;;;;;9.55;4.30;;;10.10;52.70;;;;;;5065395;28;20040;-73
2021/05/03 13:34:29;;;;;;;4.53;3.97;;;10.30;50.00;;;;;;5062557;28;20573;-75
2021/05/03 13:36:55;;;;;;;7.13;4.70;;;10.60;50.30;;;;;;5066233;28;20478;-73
2021/05/03 13:39:21;;;;;;;11.00;5.03;;;10.60;47.20;;;;;;5067496;28;20181;-74
2021/05/03 13:41:47;;;;;;;10.93;5.43;;;10.50;45.30;;;;;;5062672;28;20024;-73
2021/05/03 13:44:16;;;;;;;2.50;2.30;;;10.60;46.30;;;;;;5059918;28;20112;-74
2021/05/03 13:46:42;;;;;;;10.45;5.65;;;10.00;45.60;;;;;;5060089;28;20028;-74
2021/05/03 13:49:07;;;;;;;6.20;3.00;;;9.60;46.00;;;;;;5072476;28;20024;-74